createdAt,value
2023-03-06T00:00:53.162Z,10.40
2023-03-06T00:03:21.344Z,10.80
2023-03-06T00:05:50.845Z,11.10
2023-03-06T00:08:18.603Z,11.23
2023-03-06T00:10:46.324Z,9.87
2023-03-06T00:13:18.856Z,10.30
2023-03-06T00:15:47.387Z,10.37
2023-03-06T00:18:16.136Z,10.87
2023-03-06T00:20:45.114Z,7.73
2023-03-06T00:23:14.188Z,10.50
2023-03-06T00:25:43.960Z,11.20
2023-03-06T00:28:12.394Z,12.17
2023-03-06T00:30:40.465Z,10.47
2023-03-06T00:33:08.372Z,12.80
2023-03-06T00:35:36.096Z,11.93
2023-03-06T00:38:03.833Z,11.17
2023-03-06T00:40:32.914Z,9.33
2023-03-06T00:43:00.592Z,10.77
2023-03-06T00:45:28.326Z,8.93
2023-03-06T00:47:56.038Z,11.30
2023-03-06T00:50:23.728Z,10.10
2023-03-06T00:52:51.452Z,9.63
2023-03-06T00:55:19.257Z,7.97
2023-03-06T00:57:48.365Z,11.13
2023-03-06T01:00:16.520Z,8.63
2023-03-06T01:02:44.145Z,9.53
2023-03-06T01:05:14.818Z,7.57
2023-03-06T01:07:42.627Z,11.63
2023-03-06T01:10:12.058Z,9.43
2023-03-06T01:12:39.690Z,11.67
2023-03-06T01:15:10.519Z,9.67
2023-03-06T01:17:38.096Z,9.17
2023-03-06T01:20:07.063Z,10.60
2023-03-06T01:22:34.818Z,9.33
2023-03-06T01:25:02.470Z,10.97
2023-03-06T01:27:30.171Z,10.30
2023-03-06T01:29:57.988Z,10.47
2023-03-06T01:32:27.049Z,8.53
2023-03-06T01:34:55.144Z,9.43
2023-03-06T01:37:22.955Z,10.17
2023-03-06T01:39:50.700Z,13.30
2023-03-06T01:42:18.368Z,9.97
2023-03-06T01:45:03.514Z,11.00
2023-03-06T01:47:32.486Z,9.53
2023-03-06T01:50:03.811Z,9.60
2023-03-06T01:52:34.007Z,9.30
2023-03-06T01:55:06.602Z,10.57
2023-03-06T01:57:37.757Z,10.97
2023-03-06T02:00:09.402Z,11.77
2023-03-06T02:02:39.467Z,11.17
2023-03-06T02:05:08.469Z,12.67
2023-03-06T02:07:38.369Z,11.10
2023-03-06T02:10:06.695Z,10.57
2023-03-06T02:12:34.682Z,11.27
2023-03-06T02:15:02.582Z,10.83
2023-03-06T02:17:30.593Z,13.53
2023-03-06T02:20:08.666Z,20.10
2023-03-06T02:22:41.381Z,9.40
2023-03-06T02:25:15.117Z,9.60
2023-03-06T02:27:44.347Z,8.93
2023-03-06T02:30:19.254Z,10.20
2023-03-06T02:32:46.923Z,10.10
2023-03-06T02:35:21.524Z,10.33
2023-03-06T02:37:49.396Z,11.43
2023-03-06T02:40:19.559Z,9.77
2023-03-06T02:42:50.960Z,13.93
2023-03-06T02:45:24.431Z,12.13
2023-03-06T02:47:52.049Z,10.57
2023-03-06T02:50:19.857Z,9.57
2023-03-06T02:52:47.591Z,11.03
2023-03-06T02:55:15.536Z,9.97
2023-03-06T02:57:43.563Z,12.10
2023-03-06T03:00:14.143Z,9.57
2023-03-06T03:02:42.045Z,11.20
2023-03-06T03:05:10.135Z,10.50
2023-03-06T03:07:37.973Z,13.23
2023-03-06T03:10:06.310Z,11.50
2023-03-06T03:12:34.501Z,11.20
2023-03-06T03:15:02.148Z,11.00
2023-03-06T03:17:31.439Z,11.00
2023-03-06T03:19:59.238Z,9.33
2023-03-06T03:22:26.961Z,10.27
2023-03-06T03:24:54.756Z,13.03
2023-03-06T03:27:22.401Z,11.70
2023-03-06T03:29:50.076Z,12.07
2023-03-06T03:32:17.836Z,10.73
2023-03-06T03:34:46.988Z,11.07
2023-03-06T03:37:14.784Z,11.73
2023-03-06T03:39:42.583Z,13.60
2023-03-06T03:42:10.702Z,11.87
2023-03-06T03:44:38.348Z,11.13
2023-03-06T03:47:06.885Z,11.97
2023-03-06T03:49:34.657Z,13.93
2023-03-06T03:52:03.732Z,12.33
2023-03-06T03:54:31.415Z,11.60
2023-03-06T03:56:59.077Z,13.30
2023-03-06T03:59:26.706Z,9.87
2023-03-06T04:01:56.004Z,12.13
2023-03-06T04:04:24.223Z,13.30
2023-03-06T04:06:51.889Z,12.97
2023-03-06T04:09:21.008Z,11.27
2023-03-06T04:11:48.857Z,14.17
2023-03-06T04:14:16.632Z,15.87
2023-03-06T04:16:44.290Z,15.13
2023-03-06T04:19:12.270Z,14.20
2023-03-06T04:21:39.994Z,12.87
2023-03-06T04:24:08.505Z,16.77
2023-03-06T04:26:37.512Z,19.97
2023-03-06T04:29:05.177Z,16.93
2023-03-06T04:31:32.970Z,15.73
2023-03-06T04:34:00.694Z,15.47
2023-03-06T04:36:30.615Z,14.43
2023-03-06T04:38:58.578Z,16.27
2023-03-06T04:41:26.462Z,14.57
2023-03-06T04:43:55.931Z,15.80
2023-03-06T04:46:23.775Z,13.97
2023-03-06T04:48:51.373Z,15.07
2023-03-06T04:51:19.121Z,18.10
2023-03-06T04:53:46.847Z,13.40
2023-03-06T04:56:14.513Z,15.47
2023-03-06T04:58:43.679Z,15.17
2023-03-06T05:01:13.048Z,14.17
2023-03-06T05:03:40.787Z,15.03
2023-03-06T05:06:08.906Z,18.57
2023-03-06T05:08:36.605Z,16.03
2023-03-06T05:11:04.286Z,14.37
2023-03-06T05:13:31.972Z,14.13
2023-03-06T05:16:03.605Z,15.03
2023-03-06T05:18:33.177Z,13.47
2023-03-06T05:21:01.022Z,17.80
2023-03-06T05:23:29.586Z,14.10
2023-03-06T05:25:57.814Z,18.60
2023-03-06T05:28:26.502Z,15.77
2023-03-06T05:30:54.443Z,16.70
2023-03-06T05:33:22.101Z,15.30
2023-03-06T05:35:51.504Z,16.70
2023-03-06T05:38:19.684Z,14.17
2023-03-06T05:40:47.540Z,15.80
2023-03-06T05:43:16.519Z,15.53
2023-03-06T05:45:44.838Z,13.50
2023-03-06T05:48:14.207Z,17.87
2023-03-06T05:50:41.964Z,16.17
2023-03-06T05:53:11.025Z,19.70
2023-03-06T05:55:38.706Z,14.20
2023-03-06T05:58:06.316Z,15.23
2023-03-06T06:00:33.962Z,15.40
2023-03-06T06:03:02.167Z,14.07
2023-03-06T06:05:29.807Z,15.33
2023-03-06T06:07:57.439Z,16.90
2023-03-06T06:10:26.499Z,15.23
2023-03-06T06:12:54.151Z,16.90
2023-03-06T06:15:21.831Z,19.97
2023-03-06T06:17:49.430Z,14.50
2023-03-06T06:20:17.258Z,17.00
2023-03-06T06:22:44.937Z,18.13
2023-03-06T06:25:12.604Z,17.23
2023-03-06T06:27:41.731Z,17.60
2023-03-06T06:30:12.231Z,15.40
2023-03-06T06:32:40.155Z,17.07
2023-03-06T06:35:08.516Z,18.60
2023-03-06T06:37:36.669Z,15.73
2023-03-06T06:40:05.524Z,16.17
2023-03-06T06:42:39.434Z,15.90
2023-03-06T06:45:10.446Z,16.13
2023-03-06T06:47:41.119Z,16.43
2023-03-06T06:50:12.422Z,17.90
2023-03-06T06:52:40.167Z,18.10
2023-03-06T06:55:08.906Z,16.20
2023-03-06T06:57:36.564Z,17.20
2023-03-06T07:00:05.198Z,16.17
2023-03-06T07:02:34.205Z,17.03
2023-03-06T07:05:05.114Z,15.93
2023-03-06T07:07:35.668Z,17.90
2023-03-06T07:10:05.517Z,18.07
2023-03-06T07:12:34.994Z,17.80
2023-03-06T07:15:02.815Z,17.73
2023-03-06T07:17:30.649Z,18.60
2023-03-06T07:19:59.929Z,18.57
2023-03-06T07:22:30.334Z,16.47
2023-03-06T07:24:59.881Z,17.70
2023-03-06T07:27:27.578Z,18.30
2023-03-06T07:29:55.307Z,15.50
2023-03-06T07:32:23.015Z,17.83
2023-03-06T07:34:50.699Z,20.20
2023-03-06T07:37:19.708Z,20.87
2023-03-06T07:39:49.417Z,19.40
2023-03-06T07:42:17.156Z,18.93
2023-03-06T07:44:44.751Z,15.23
2023-03-06T07:47:13.665Z,17.87
2023-03-06T07:49:41.337Z,18.37
2023-03-06T07:52:08.991Z,16.80
2023-03-06T07:54:38.009Z,17.17
2023-03-06T07:57:05.712Z,17.13
2023-03-06T07:59:33.450Z,16.77
2023-03-06T08:02:01.265Z,19.30
2023-03-06T08:04:30.076Z,19.23
2023-03-06T08:07:00.005Z,16.17
2023-03-06T08:09:28.087Z,18.37
2023-03-06T08:11:57.524Z,15.60
2023-03-06T08:14:25.185Z,18.40
2023-03-06T08:16:52.961Z,17.43
2023-03-06T08:19:20.731Z,18.50
2023-03-06T08:21:48.391Z,18.77
2023-03-06T08:24:16.769Z,18.10
2023-03-06T08:26:44.516Z,17.57
2023-03-06T08:29:13.572Z,16.03
2023-03-06T08:31:43.029Z,16.40
2023-03-06T08:34:12.535Z,21.30
2023-03-06T08:36:40.531Z,19.40
2023-03-06T08:39:08.659Z,22.17
2023-03-06T08:41:37.372Z,18.10
2023-03-06T08:44:06.710Z,18.73
2023-03-06T08:46:38.939Z,17.40
2023-03-06T08:49:06.838Z,15.43
2023-03-06T08:51:34.721Z,20.20
2023-03-06T08:54:02.952Z,17.87
2023-03-06T08:56:32.374Z,18.77
2023-03-06T08:59:02.702Z,18.27
2023-03-06T09:01:32.851Z,16.37
2023-03-06T09:04:04.398Z,23.97
2023-03-06T09:06:34.200Z,21.57
2023-03-06T09:09:02.657Z,18.47
2023-03-06T09:11:30.513Z,19.17
2023-03-06T09:13:59.002Z,21.03
2023-03-06T09:16:27.293Z,13.97
2023-03-06T09:18:55.083Z,16.70
2023-03-06T09:21:25.485Z,17.07
2023-03-06T09:23:53.319Z,15.00
2023-03-06T09:26:21.128Z,17.67
2023-03-06T09:28:48.863Z,16.93
2023-03-06T09:31:19.038Z,17.60
2023-03-06T09:33:47.503Z,18.53
2023-03-06T09:36:17.830Z,16.30
2023-03-06T09:38:48.358Z,17.27
2023-03-06T09:41:28.189Z,21.17
2023-03-06T09:44:07.267Z,25.47
2023-03-06T09:46:47.176Z,18.50
2023-03-06T09:49:39.816Z,19.53
2023-03-06T09:52:22.575Z,17.53
2023-03-06T09:54:55.434Z,19.47
2023-03-06T09:57:26.593Z,18.60
2023-03-06T09:59:56.415Z,21.03
2023-03-06T10:02:32.628Z,19.30
2023-03-06T10:05:04.063Z,15.70
2023-03-06T10:07:43.695Z,17.13
2023-03-06T10:10:20.365Z,15.10
2023-03-06T10:12:54.406Z,14.83
2023-03-06T10:15:26.475Z,15.53
2023-03-06T10:17:54.626Z,19.37
2023-03-06T10:20:25.391Z,18.00
2023-03-06T10:23:34.690Z,17.00
2023-03-06T10:26:14.351Z,19.27
2023-03-06T10:28:45.999Z,17.70
2023-03-06T10:31:17.746Z,17.13
2023-03-06T10:33:55.339Z,14.80
2023-03-06T10:36:26.978Z,15.43
2023-03-06T10:38:55.935Z,17.57
2023-03-06T10:41:29.429Z,17.37
2023-03-06T10:44:23.559Z,17.27
2023-03-06T10:46:53.571Z,16.53
2023-03-06T10:49:31.714Z,15.50
2023-03-06T10:52:05.498Z,20.70
2023-03-06T10:54:35.601Z,20.03
2023-03-06T10:57:26.838Z,14.93
2023-03-06T10:59:57.050Z,16.83
2023-03-06T11:02:30.981Z,15.40
2023-03-06T11:05:00.746Z,18.53
2023-03-06T11:07:29.719Z,14.70
2023-03-06T11:10:02.880Z,19.10
2023-03-06T11:12:33.468Z,15.03
2023-03-06T11:15:25.238Z,15.07
2023-03-06T11:17:57.553Z,14.90
2023-03-06T11:20:41.213Z,15.13
2023-03-06T11:23:19.709Z,13.90
2023-03-06T11:25:51.455Z,17.17
2023-03-06T11:28:26.570Z,13.57
2023-03-06T11:30:58.663Z,13.90
2023-03-06T11:33:31.826Z,14.60
2023-03-06T11:36:05.460Z,13.23
2023-03-06T11:38:43.348Z,13.20
2023-03-06T11:41:19.316Z,15.17
2023-03-06T11:43:56.528Z,13.50
2023-03-06T11:46:27.375Z,14.70
2023-03-06T11:49:00.299Z,13.43
2023-03-06T11:51:31.475Z,14.63
2023-03-06T11:54:01.162Z,14.97
2023-03-06T11:56:36.438Z,15.50
2023-03-06T11:59:23.266Z,15.57
2023-03-06T12:02:00.617Z,16.77
2023-03-06T12:04:42.441Z,14.50
2023-03-06T12:07:22.639Z,14.43
2023-03-06T12:09:56.834Z,14.77
2023-03-06T12:12:42.275Z,15.23
2023-03-06T12:15:22.414Z,14.80
2023-03-06T12:18:14.362Z,15.60
2023-03-06T12:20:53.759Z,14.43
2023-03-06T12:23:38.469Z,17.43
2023-03-06T12:26:19.290Z,15.80
2023-03-06T12:29:06.509Z,17.47
2023-03-06T12:31:47.173Z,13.80
2023-03-06T12:34:40.186Z,17.87
2023-03-06T12:37:22.179Z,15.37
2023-03-06T12:40:06.821Z,12.47
2023-03-06T12:42:44.139Z,15.00
2023-03-06T12:45:22.979Z,13.77
2023-03-06T12:47:56.909Z,13.00
2023-03-06T12:50:27.232Z,12.80
2023-03-06T12:52:57.078Z,14.47
2023-03-06T12:55:26.132Z,14.07
2023-03-06T12:57:54.104Z,15.67
2023-03-06T13:01:04.205Z,12.70
2023-03-06T13:03:55.322Z,13.97
2023-03-06T13:06:50.835Z,12.33
2023-03-06T13:09:32.421Z,13.23
2023-03-06T13:12:25.689Z,13.93
2023-03-06T13:14:59.779Z,11.63
2023-03-06T13:17:38.737Z,12.67
2023-03-06T13:20:30.394Z,13.97
2023-03-06T13:22:58.464Z,13.97
2023-03-06T13:25:46.632Z,13.50
2023-03-06T13:28:25.753Z,11.27
2023-03-06T13:30:53.579Z,12.00
2023-03-06T13:33:52.662Z,10.53
2023-03-06T13:36:27.956Z,10.50
2023-03-06T13:39:01.098Z,10.20
2023-03-06T13:41:43.570Z,8.77
2023-03-06T13:44:48.716Z,8.10
2023-03-06T13:48:06.550Z,11.30
2023-03-06T13:50:36.589Z,10.23
2023-03-06T13:53:48.685Z,9.07
2023-03-06T13:56:46.536Z,11.00
2023-03-06T13:59:45.466Z,8.93
2023-03-06T14:02:36.967Z,9.30
2023-03-06T14:05:11.585Z,9.53
2023-03-06T14:07:42.068Z,10.70
2023-03-06T14:10:21.749Z,13.13
2023-03-06T14:13:03.086Z,9.97
2023-03-06T14:15:38.353Z,9.40
2023-03-06T14:18:08.394Z,8.23
2023-03-06T14:20:43.361Z,9.97
2023-03-06T14:23:24.602Z,9.30
2023-03-06T14:26:00.297Z,10.30
2023-03-06T14:28:30.156Z,9.43
2023-03-06T14:30:59.928Z,9.60
2023-03-06T14:33:32.646Z,10.40
2023-03-06T14:36:03.233Z,14.70
2023-03-06T14:38:35.546Z,10.20
2023-03-06T14:41:06.622Z,8.73
2023-03-06T14:43:34.544Z,8.83
2023-03-06T14:46:04.170Z,7.40
2023-03-06T14:48:41.072Z,9.73
2023-03-06T14:51:15.718Z,8.00
2023-03-06T14:53:45.610Z,7.40
2023-03-06T14:56:19.155Z,6.90
2023-03-06T14:58:55.415Z,7.20
2023-03-06T15:01:30.106Z,7.20
2023-03-06T15:04:00.660Z,7.20
2023-03-06T15:06:34.051Z,8.33
2023-03-06T15:09:07.849Z,7.33
2023-03-06T15:11:57.467Z,9.63
2023-03-06T15:14:32.237Z,10.73
2023-03-06T15:17:22.749Z,10.13
2023-03-06T15:19:52.767Z,11.33
2023-03-06T15:22:27.787Z,13.17
2023-03-06T15:25:08.716Z,12.40
2023-03-06T15:27:38.769Z,15.13
2023-03-06T15:30:21.598Z,12.97
2023-03-06T15:32:49.444Z,12.57
2023-03-06T15:35:28.184Z,14.07
2023-03-06T15:37:58.736Z,13.03
2023-03-06T15:40:29.457Z,13.97
2023-03-06T15:42:58.981Z,15.03
2023-03-06T15:45:29.538Z,15.07
2023-03-06T15:47:57.275Z,14.23
2023-03-06T15:50:27.219Z,14.23
2023-03-06T15:52:55.334Z,17.47
2023-03-06T15:55:25.761Z,17.80
2023-03-06T15:57:57.326Z,16.67
2023-03-06T16:00:29.182Z,18.33
2023-03-06T16:02:57.522Z,18.97
2023-03-06T16:05:26.524Z,19.10
2023-03-06T16:07:54.229Z,20.13
2023-03-06T16:10:24.115Z,18.93
2023-03-06T16:12:55.382Z,17.87
2023-03-06T16:15:25.349Z,18.23
2023-03-06T16:17:54.453Z,18.27
2023-03-06T16:20:24.439Z,18.37
2023-03-06T16:22:53.745Z,20.77
2023-03-06T16:25:23.075Z,19.50
2023-03-06T16:27:55.354Z,18.17
2023-03-06T16:30:26.228Z,19.23
2023-03-06T16:32:55.725Z,19.43
2023-03-06T16:35:23.804Z,18.40
2023-03-06T16:37:51.761Z,20.73
2023-03-06T16:40:22.981Z,20.97
2023-03-06T16:42:53.991Z,19.53
2023-03-06T16:45:23.333Z,23.57
2023-03-06T16:47:51.722Z,17.57
2023-03-06T16:50:26.852Z,16.53
2023-03-06T16:52:56.070Z,17.63
2023-03-06T16:55:24.606Z,17.57
2023-03-06T16:57:53.162Z,16.10
2023-03-06T17:00:22.016Z,15.40
2023-03-06T17:02:50.145Z,17.53
2023-03-06T17:05:19.162Z,15.77
2023-03-06T17:07:50.355Z,21.00
2023-03-06T17:10:22.614Z,17.27
2023-03-06T17:12:50.676Z,14.27
2023-03-06T17:15:18.710Z,18.33
2023-03-06T17:17:46.577Z,18.03
2023-03-06T17:20:14.599Z,17.30
2023-03-06T17:22:42.544Z,16.10
2023-03-06T17:25:12.266Z,16.40
2023-03-06T17:27:39.948Z,18.10
2023-03-06T17:30:08.878Z,15.87
2023-03-06T17:32:40.811Z,16.00
2023-03-06T17:35:09.592Z,17.87
2023-03-06T17:37:37.527Z,17.53
2023-03-06T17:40:09.114Z,15.33
2023-03-06T17:42:38.302Z,16.50
2023-03-06T17:45:09.311Z,17.33
2023-03-06T17:47:36.994Z,16.47
2023-03-06T17:50:08.118Z,20.47
2023-03-06T17:52:35.801Z,19.30
2023-03-06T17:55:06.917Z,20.60
2023-03-06T17:57:34.600Z,18.60
2023-03-06T18:00:05.826Z,20.10
2023-03-06T18:02:33.492Z,18.33
2023-03-06T18:05:01.208Z,21.53
2023-03-06T18:07:29.008Z,22.20
2023-03-06T18:09:56.914Z,22.73
2023-03-06T18:12:24.807Z,19.73
2023-03-06T18:14:52.733Z,20.10
2023-03-06T18:17:21.748Z,22.17
2023-03-06T18:19:49.482Z,23.77
2023-03-06T18:22:17.165Z,23.50
2023-03-06T18:24:57.213Z,23.23
2023-03-06T18:27:25.114Z,24.57
2023-03-06T18:29:52.908Z,22.47
2023-03-06T18:32:22.441Z,21.60
2023-03-06T18:34:50.888Z,23.50
2023-03-06T18:37:18.957Z,20.87
2023-03-06T18:39:46.682Z,22.83
2023-03-06T18:42:14.384Z,21.23
2023-03-06T18:44:43.960Z,20.80
2023-03-06T18:47:11.747Z,21.73
2023-03-06T18:49:43.106Z,21.83
2023-03-06T18:52:12.148Z,23.47
2023-03-06T18:54:39.881Z,20.37
2023-03-06T18:57:07.880Z,21.07
2023-03-06T18:59:35.588Z,21.70
2023-03-06T19:02:03.380Z,19.93
2023-03-06T19:04:31.176Z,21.73
2023-03-06T19:07:00.273Z,19.83
2023-03-06T19:09:28.000Z,22.27
2023-03-06T19:11:55.751Z,23.30
2023-03-06T19:14:23.510Z,19.90
2023-03-06T19:16:51.535Z,21.00
2023-03-06T19:19:19.338Z,21.93
2023-03-06T19:21:47.035Z,21.00
2023-03-06T19:24:16.141Z,23.60
2023-03-06T19:26:43.926Z,21.17
2023-03-06T19:29:11.561Z,22.00
2023-03-06T19:31:39.305Z,23.13
2023-03-06T19:34:07.039Z,22.07
2023-03-06T19:36:34.783Z,25.10
2023-03-06T19:39:04.775Z,19.30
2023-03-06T19:41:34.845Z,22.77
2023-03-06T19:44:04.997Z,21.50
2023-03-06T19:46:33.465Z,20.63
2023-03-06T19:49:02.584Z,22.73
2023-03-06T19:51:30.731Z,20.47
2023-03-06T19:53:58.887Z,20.67
2023-03-06T19:56:31.910Z,23.83
2023-03-06T19:59:01.070Z,19.30
2023-03-06T20:01:29.466Z,21.23
2023-03-06T20:03:59.204Z,20.97
2023-03-06T20:06:29.608Z,21.77
2023-03-06T20:08:57.329Z,20.53
2023-03-06T20:11:30.243Z,22.27
2023-03-06T20:13:59.235Z,22.30
2023-03-06T20:16:29.257Z,23.27
2023-03-06T20:18:59.005Z,21.20
2023-03-06T20:21:28.250Z,20.00
2023-03-06T20:23:58.028Z,22.73
2023-03-06T20:26:27.684Z,22.03
2023-03-06T20:28:56.047Z,22.23
2023-03-06T20:31:25.632Z,21.03
2023-03-06T20:33:57.679Z,21.77
2023-03-06T20:36:29.110Z,21.60
2023-03-06T20:38:57.407Z,22.73
2023-03-06T20:41:27.618Z,21.27
2023-03-06T20:43:55.798Z,21.30
2023-03-06T20:46:24.382Z,21.37
2023-03-06T20:48:54.994Z,24.83
2023-03-06T20:51:24.484Z,22.63
2023-03-06T20:53:54.080Z,23.70
2023-03-06T20:56:27.151Z,25.43
2023-03-06T20:58:55.157Z,25.47
2023-03-06T21:01:24.935Z,25.73
2023-03-06T21:03:54.541Z,27.73
2023-03-06T21:06:22.633Z,27.00
2023-03-06T21:08:50.666Z,27.20
2023-03-06T21:11:18.878Z,24.00
2023-03-06T21:13:46.951Z,25.73
2023-03-06T21:16:16.752Z,26.73
2023-03-06T21:18:44.966Z,24.67
2023-03-06T21:21:16.430Z,22.93
2023-03-06T21:23:44.317Z,26.53
2023-03-06T21:26:14.271Z,26.90
2023-03-06T21:28:42.462Z,27.73
2023-03-06T21:31:12.584Z,27.30
2023-03-06T21:33:41.226Z,29.23
2023-03-06T21:36:09.316Z,27.27
2023-03-06T21:38:39.298Z,27.63
2023-03-06T21:41:11.945Z,29.83
2023-03-06T21:43:39.908Z,31.43
2023-03-06T21:46:08.099Z,23.50
2023-03-06T21:48:36.187Z,26.90
2023-03-06T21:51:09.146Z,27.73
2023-03-06T21:53:41.089Z,26.60
2023-03-06T21:56:09.720Z,27.43
2023-03-06T21:58:37.634Z,26.33
2023-03-06T22:01:09.954Z,27.13
2023-03-06T22:03:37.970Z,31.93
2023-03-06T22:06:13.410Z,29.23
2023-03-06T22:08:43.732Z,26.17
2023-03-06T22:11:13.345Z,26.93
2023-03-06T22:13:41.394Z,28.90
2023-03-06T22:16:10.183Z,28.73
2023-03-06T22:18:38.893Z,34.87
2023-03-06T22:21:10.964Z,31.27
2023-03-06T22:23:40.415Z,26.57
2023-03-06T22:26:12.332Z,25.93
2023-03-06T22:28:40.706Z,32.47
2023-03-06T22:31:10.628Z,32.90
2023-03-06T22:33:38.612Z,34.37
2023-03-06T22:36:08.760Z,31.30
2023-03-06T22:38:38.804Z,31.50
2023-03-06T22:41:07.820Z,31.83
2023-03-06T22:43:37.644Z,34.20
2023-03-06T22:46:07.210Z,30.97
2023-03-06T22:48:35.114Z,34.20
2023-03-06T22:51:04.564Z,32.53
2023-03-06T22:53:32.863Z,31.27
2023-03-06T22:56:01.169Z,32.93
2023-03-06T22:58:34.282Z,31.13
2023-03-06T23:01:07.348Z,32.97
2023-03-06T23:03:36.334Z,32.90
2023-03-06T23:06:07.316Z,33.83
2023-03-06T23:08:35.042Z,31.17
2023-03-06T23:11:03.324Z,30.67
2023-03-06T23:13:30.994Z,32.67
2023-03-06T23:15:59.196Z,35.43
2023-03-06T23:18:30.438Z,30.73
2023-03-06T23:20:58.907Z,30.13
2023-03-06T23:23:26.659Z,30.83
2023-03-06T23:25:59.356Z,27.40
2023-03-06T23:28:27.089Z,30.07
2023-03-06T23:30:55.701Z,27.43
2023-03-06T23:33:23.522Z,30.33
2023-03-06T23:35:52.727Z,28.83
2023-03-06T23:38:20.502Z,27.40
2023-03-06T23:40:48.543Z,27.67
2023-03-06T23:43:16.229Z,31.17
2023-03-06T23:45:53.271Z,25.00
2023-03-06T23:48:21.138Z,31.90
2023-03-06T23:50:49.155Z,26.77
2023-03-06T23:53:18.403Z,27.07
2023-03-06T23:55:48.071Z,25.90
2023-03-06T23:58:17.044Z,27.53
